Time;durP1;ratioP1;P1;durP2;ratioP2;P2;SDS_P1;SDS_P2;PMS_P1;PMS_P2;Temp;Humidity;BMP_temperature;BMP_pressure;BME280_temperature;BME280_humidity;BME280_pressure;Samples;Min_cycle;Max_cycle;Signal;HPM_P1;HPM_P2
2021/04/10 00:00:55;;;;;;;20.60;11.67;;;;;;;5.00;52.03;100003.53;147214;1147;104692;-73
2021/04/10 00:03:58;;;;;;;22.43;11.87;;;;;;;4.98;52.18;99999.34;147510;1146;104487;-72
2021/04/10 00:07:01;;;;;;;22.20;12.30;;;;;;;4.95;51.54;100005.72;147681;1147;104485;-72
2021/04/10 00:10:07;;;;;;;23.07;12.47;;;;;;;4.93;52.14;99999.72;147728;1147;104584;-71
2021/04/10 00:13:10;;;;;;;24.33;12.53;;;;;;;4.92;52.14;99998.02;147710;1147;104705;-72
2021/04/10 00:16:13;;;;;;;22.55;11.60;;;;;;;4.91;52.00;99991.91;147737;1147;104488;-72
2021/04/10 00:19:17;;;;;;;20.90;10.88;;;;;;;4.89;52.01;99995.64;147553;1147;104560;-74
2021/04/10 00:22:20;;;;;;;25.33;12.30;;;;;;;4.87;51.92;99987.83;147729;1148;104941;-72
2021/04/10 00:25:23;;;;;;;23.05;12.15;;;;;;;4.86;52.14;99988.78;147741;1147;104548;-72
2021/04/10 00:28:26;;;;;;;21.80;11.85;;;;;;;4.85;52.62;99995.05;147713;1147;104835;-73
2021/04/10 00:31:30;;;;;;;23.77;12.70;;;;;;;4.84;52.72;99984.59;147715;1146;104537;-72
2021/04/10 00:34:33;;;;;;;20.90;11.20;;;;;;;4.83;52.22;99994.33;147709;1147;104547;-72
2021/04/10 00:37:37;;;;;;;22.40;11.88;;;;;;;4.83;52.34;99990.83;147563;1147;104549;-71
2021/04/10 00:40:40;;;;;;;22.50;12.07;;;;;;;4.81;52.62;99980.40;147270;1147;104471;-72
2021/04/10 00:43:43;;;;;;;24.20;12.77;;;;;;;4.82;52.69;99986.52;147748;1147;104562;-72
2021/04/10 00:46:46;;;;;;;21.27;11.53;;;;;;;4.83;52.97;99980.25;147715;1147;104627;-71
2021/04/10 00:49:49;;;;;;;21.20;11.55;;;;;;;4.84;52.50;99985.42;147548;1147;104516;-73
2021/04/10 00:52:52;;;;;;;23.57;11.80;;;;;;;4.85;52.28;99983.61;147657;1147;104450;-72
2021/04/10 00:55:58;;;;;;;22.27;12.18;;;;;;;4.87;52.48;99981.71;147471;1147;104969;-73
2021/04/10 00:59:01;;;;;;;20.50;11.73;;;;;;;4.88;52.46;99978.92;147606;1147;104469;-74
2021/04/10 01:02:06;;;;;;;20.00;11.30;;;;;;;4.90;52.60;99976.16;147561;1147;104540;-71
2021/04/10 01:05:11;;;;;;;20.90;11.90;;;;;;;4.90;52.57;99976.16;147754;1147;104550;-71
2021/04/10 01:08:16;;;;;;;22.63;11.93;;;;;;;4.91;52.65;99973.40;147682;1146;104531;-71
2021/04/10 01:11:29;;;;;;;22.57;11.67;;;;;;;4.94;52.92;99971.47;147539;1147;104540;-74
2021/04/10 01:14:44;;;;;;;25.20;12.90;;;;;;;4.95;52.75;99978.45;147769;1146;104505;-74
2021/04/10 01:17:53;;;;;;;23.10;12.40;;;;;;;4.95;52.78;99981.93;147336;1147;104529;-72
2021/04/10 01:21:05;;;;;;;23.20;13.43;;;;;;;4.94;52.93;99972.30;147724;1147;104537;-73
2021/04/10 01:24:35;;;;;;;21.27;11.43;;;;;;;4.93;52.76;99973.28;147763;1147;104582;-74
2021/04/10 01:27:45;;;;;;;23.13;12.83;;;;;;;4.91;52.94;99975.21;147683;1147;104619;-72
2021/04/10 01:30:49;;;;;;;22.55;12.33;;;;;;;4.90;53.19;99976.16;147784;1147;104484;-73
2021/04/10 01:33:59;;;;;;;21.00;11.63;;;;;;;4.90;52.85;99976.16;147668;1147;104535;-72
2021/04/10 01:37:08;;;;;;;21.87;12.00;;;;;;;4.88;52.77;99975.45;147396;1147;104530;-72
2021/04/10 01:40:14;;;;;;;21.00;11.48;;;;;;;4.87;53.14;99971.14;147360;1147;104572;-74
2021/04/10 01:43:19;;;;;;;22.75;12.35;;;;;;;4.86;52.61;99972.09;147755;1147;105071;-73
2021/04/10 01:46:25;;;;;;;25.52;13.35;;;;;;;4.84;53.50;99968.73;147563;1146;104587;-73
2021/04/10 01:49:31;;;;;;;24.23;12.75;;;;;;;4.83;52.89;99972.32;147560;1147;104695;-72
2021/04/10 01:52:35;;;;;;;23.70;13.22;;;;;;;4.80;52.98;99968.13;147356;1147;104495;-72
2021/04/10 01:55:40;;;;;;;24.37;13.25;;;;;;;4.77;53.32;99968.36;147431;1147;104547;-73
2021/04/10 01:58:48;;;;;;;27.67;13.50;;;;;;;4.75;53.21;99965.00;147457;1147;104538;-73
2021/04/10 02:01:55;;;;;;;23.15;12.73;;;;;;;4.77;53.16;99964.89;147724;1148;104455;-75
2021/04/10 02:05:10;;;;;;;23.73;13.18;;;;;;;4.76;53.09;99969.34;147779;1147;105126;-72
2021/04/10 02:08:16;;;;;;;23.42;13.35;;;;;;;4.76;53.14;99963.23;147834;1147;104645;-72
2021/04/10 02:11:21;;;;;;;26.95;14.00;;;;;;;4.76;53.49;99963.23;147706;1147;104540;-73
2021/04/10 02:14:38;;;;;;;24.00;13.50;;;;;;;4.75;53.14;99966.81;147698;1146;104882;-74
2021/04/10 02:17:43;;;;;;;25.27;13.60;;;;;;;4.75;53.36;99964.17;147742;1147;104600;-72
2021/04/10 02:20:48;;;;;;;27.10;14.37;;;;;;;4.76;53.35;99968.52;147682;1148;104572;-72
2021/04/10 02:23:52;;;;;;;25.52;13.62;;;;;;;4.76;53.49;99965.87;147340;1147;104546;-72
2021/04/10 02:27:30;;;;;;;25.57;13.63;;;;;;;4.75;53.32;99964.17;147404;1147;104506;-72
2021/04/10 02:30:38;;;;;;;29.35;14.03;;;;;;;4.75;53.45;99969.46;147636;1147;104538;-72
2021/04/10 02:33:45;;;;;;;24.43;13.18;;;;;;;4.74;53.66;99968.63;147473;1147;104487;-70
2021/04/10 02:36:52;;;;;;;23.38;12.60;;;;;;;4.72;53.28;99968.74;147601;1148;104783;-72
2021/04/10 02:39:56;;;;;;;24.95;13.35;;;;;;;4.69;53.47;99974.27;147788;1147;104556;-71
2021/04/10 02:43:04;;;;;;;23.55;12.90;;;;;;;4.66;53.51;99973.69;147747;1146;104538;-73
2021/04/10 02:46:13;;;;;;;26.25;12.88;;;;;;;4.65;53.81;99975.47;147603;1147;104473;-73
2021/04/10 02:49:24;;;;;;;27.53;13.53;;;;;;;4.62;53.70;99973.09;147650;1148;104465;-72
2021/04/10 02:52:31;;;;;;;25.37;13.70;;;;;;;4.61;53.65;99971.40;147259;1147;104543;-72
2021/04/10 02:55:38;;;;;;;24.25;13.78;;;;;;;4.61;54.17;99975.85;147620;1147;104546;-73
2021/04/10 02:58:46;;;;;;;25.55;14.23;;;;;;;4.60;53.81;99980.30;147344;1147;104477;-73
2021/04/10 03:01:51;;;;;;;29.12;14.93;;;;;;;4.57;53.95;99980.53;147800;1147;104516;-71
2021/04/10 03:04:55;;;;;;;24.20;14.03;;;;;;;4.56;53.84;99980.65;147633;1147;104482;-72
2021/04/10 03:08:00;;;;;;;24.07;14.10;;;;;;;4.53;53.90;99976.45;147426;1147;104614;-72
2021/04/10 03:11:06;;;;;;;25.35;14.65;;;;;;;4.53;54.01;99973.81;147684;1147;104572;-72
2021/04/10 03:14:10;;;;;;;25.60;14.58;;;;;;;4.52;53.97;99972.13;147583;1147;104553;-73
2021/04/10 03:17:16;;;;;;;23.20;14.25;;;;;;;4.49;53.86;99967.09;147531;1147;104553;-73
2021/04/10 03:20:23;;;;;;;23.83;14.10;;;;;;;4.47;54.34;99969.85;147297;1147;104547;-74
2021/04/10 03:23:28;;;;;;;26.33;14.25;;;;;;;4.44;54.13;99961.33;147293;1147;104726;-74
2021/04/10 03:26:32;;;;;;;26.75;13.50;;;;;;;4.42;54.48;99971.17;147294;1148;104562;-72
2021/04/10 03:29:38;;;;;;;24.47;12.85;;;;;;;4.35;54.01;99964.69;147560;1146;104476;-72
2021/04/10 03:32:46;;;;;;;22.50;13.22;;;;;;;4.27;53.88;99965.28;147791;1147;104509;-72
2021/04/10 03:35:50;;;;;;;25.02;13.58;;;;;;;4.22;54.62;99965.66;147756;1147;104474;-73
2021/04/10 03:38:54;;;;;;;24.47;12.95;;;;;;;4.15;54.56;99964.44;147732;1148;104985;-75
2021/04/10 03:41:58;;;;;;;24.92;13.50;;;;;;;4.09;54.54;99962.28;147769;1147;104547;-72
2021/04/10 03:45:03;;;;;;;24.87;14.23;;;;;;;4.04;54.33;99972.34;147725;1147;104557;-74
2021/04/10 03:48:08;;;;;;;23.60;13.30;;;;;;;3.98;54.56;99975.47;147740;1147;104967;-71
2021/04/10 03:51:22;;;;;;;25.08;12.98;;;;;;;3.92;53.90;99976.77;147731;1147;104554;-71
2021/04/10 03:54:29;;;;;;;27.15;13.72;;;;;;;3.89;54.77;99985.78;147678;1147;104624;-72
2021/04/10 03:57:34;;;;;;;26.00;13.62;;;;;;;3.90;54.95;99989.25;147567;1147;104596;-72
2021/04/10 04:00:37;;;;;;;28.42;14.75;;;;;;;3.90;54.07;99987.44;147666;1147;104535;-71
2021/04/10 04:03:41;;;;;;;27.65;14.35;;;;;;;3.90;55.16;99986.61;147718;1147;104483;-73
2021/04/10 04:06:45;;;;;;;24.72;14.75;;;;;;;3.92;54.52;99990.80;147478;1148;104476;-74
2021/04/10 04:09:48;;;;;;;27.13;15.63;;;;;;;3.97;55.17;99992.28;147630;1147;104563;-73
2021/04/10 04:12:51;;;;;;;27.32;15.25;;;;;;;4.01;55.28;99999.00;147795;1147;104522;-77
2021/04/10 04:15:54;;;;;;;25.62;14.70;;;;;;;4.06;55.08;99997.69;147712;1147;104538;-72
2021/04/10 04:18:57;;;;;;;26.75;15.32;;;;;;;4.14;54.70;99999.75;147739;1146;104815;-75
2021/04/10 04:22:01;;;;;;;29.02;14.18;;;;;;;4.20;55.88;100003.72;147922;1148;104478;-73
2021/04/10 04:25:07;;;;;;;31.33;13.70;;;;;;;4.31;54.68;100007.20;147561;1147;104531;-73
2021/04/10 04:28:10;;;;;;;25.70;14.03;;;;;;;4.44;54.68;100000.95;147658;1148;104447;-74
2021/04/10 04:31:13;;;;;;;25.72;14.25;;;;;;;4.59;54.73;100012.12;147723;1146;104852;-73
2021/04/10 04:34:16;;;;;;;25.90;14.75;;;;;;;4.72;55.18;100010.20;147875;1147;104524;-72
2021/04/10 04:37:20;;;;;;;28.32;14.93;;;;;;;4.81;55.15;100009.48;147696;1147;105078;-72
2021/04/10 04:40:23;;;;;;;25.07;14.47;;;;;;;4.90;54.99;100015.81;147660;1147;104610;-72
2021/04/10 04:43:26;;;;;;;29.02;15.23;;;;;;;4.97;54.97;100002.96;147639;1147;104549;-72
2021/04/10 04:46:29;;;;;;;27.23;14.27;;;;;;;5.01;55.21;100001.75;147459;1147;104576;-71
2021/04/10 04:49:32;;;;;;;28.32;15.23;;;;;;;5.07;54.96;100003.89;147328;1147;104473;-72
2021/04/10 04:52:35;;;;;;;27.30;15.50;;;;;;;5.14;55.00;100006.86;147676;1146;104617;-72
2021/04/10 04:55:40;;;;;;;28.47;14.90;;;;;;;5.22;54.98;100012.40;147712;1147;104895;-71
2021/04/10 04:58:43;;;;;;;29.57;16.12;;;;;;;5.29;55.06;100017.06;147747;1147;104847;-76
2021/04/10 05:01:46;;;;;;;28.17;15.60;;;;;;;5.40;54.78;100020.63;147755;1147;104451;-73
2021/04/10 05:04:49;;;;;;;28.40;15.68;;;;;;;5.49;55.03;100022.53;147692;1147;104931;-72
2021/04/10 05:07:52;;;;;;;28.07;15.90;;;;;;;5.59;55.56;100027.91;147714;1146;104560;-73
2021/04/10 05:10:56;;;;;;;28.07;16.02;;;;;;;5.65;55.28;100030.03;147565;1147;104617;-73
2021/04/10 05:13:59;;;;;;;28.17;15.80;;;;;;;5.70;54.89;100033.98;147619;1147;104677;-72
2021/04/10 05:17:02;;;;;;;26.63;15.10;;;;;;;5.76;55.19;100034.45;147330;1147;104483;-73
2021/04/10 05:20:08;;;;;;;26.80;14.95;;;;;;;5.80;54.77;100044.64;147441;1147;104539;-72
2021/04/10 05:23:11;;;;;;;29.07;15.83;;;;;;;5.85;55.05;100034.52;147328;1148;104472;-74
2021/04/10 05:26:14;;;;;;;58.73;36.70;;;;;;;5.90;54.82;100034.95;147223;1146;104576;-72
2021/04/10 05:29:18;;;;;;;39.25;26.00;;;;;;;5.94;54.74;100035.55;147712;1147;104497;-71
2021/04/10 05:32:21;;;;;;;36.35;21.35;;;;;;;5.93;54.64;100033.02;147870;1147;104546;-73
2021/04/10 05:35:24;;;;;;;29.48;18.17;;;;;;;5.93;54.55;100033.02;147698;1148;104607;-72
2021/04/10 05:38:27;;;;;;;28.77;19.12;;;;;;;5.95;54.60;100031.97;147714;1147;104519;-76
2021/04/10 05:41:31;;;;;;;65.20;46.53;;;;;;;5.96;55.17;100038.10;147644;1147;104630;-72
2021/04/10 05:44:35;;;;;;;43.38;25.05;;;;;;;5.99;55.00;100048.45;147797;1146;104549;-75
2021/04/10 05:47:38;;;;;;;38.98;23.87;;;;;;;6.01;55.08;100054.45;147693;1147;104524;-71
2021/04/10 05:50:41;;;;;;;29.20;17.70;;;;;;;6.06;54.49;100046.94;147596;1146;104916;-71
2021/04/10 05:53:45;;;;;;;30.95;16.90;;;;;;;6.14;55.35;100047.16;147669;1147;104473;-71
2021/04/10 05:56:48;;;;;;;40.90;23.15;;;;;;;6.23;54.52;100051.66;147806;1147;104601;-68
2021/04/10 05:59:52;;;;;;;32.17;20.47;;;;;;;6.32;55.00;100062.47;147744;1147;104517;-73
2021/04/10 06:02:56;;;;;;;34.18;17.62;;;;;;;6.43;54.81;100051.80;148460;1147;104470;-72
2021/04/10 06:05:59;;;;;;;95.97;59.93;;;;;;;6.55;55.30;100056.03;147440;1147;104557;-71
2021/04/10 06:09:02;;;;;;;48.13;28.50;;;;;;;6.68;54.15;100066.42;147335;1147;104473;-73
2021/04/10 06:12:07;;;;;;;37.28;23.00;;;;;;;6.85;54.76;100070.23;147280;1146;104611;-72
2021/04/10 06:15:13;;;;;;;35.88;20.90;;;;;;;7.02;53.84;100069.60;147386;1147;104458;-72
2021/04/10 06:18:16;;;;;;;38.15;22.52;;;;;;;7.19;54.24;100065.47;147400;1147;104474;-71
2021/04/10 06:21:19;;;;;;;35.00;21.93;;;;;;;7.38;54.59;100064.67;147613;1148;104463;-71
2021/04/10 06:24:23;;;;;;;41.08;27.27;;;;;;;7.56;54.65;100062.17;147353;1147;104495;-71
2021/04/10 06:27:26;;;;;;;34.10;21.05;;;;;;;7.70;53.65;100063.60;147499;1145;104579;-72
2021/04/10 06:30:29;;;;;;;108.95;87.85;;;;;;;7.83;54.89;100065.96;147420;1146;104550;-72
2021/04/10 06:33:32;;;;;;;52.43;37.33;;;;;;;7.98;54.09;100063.72;147713;1147;104450;-72
2021/04/10 06:36:35;;;;;;;45.48;30.12;;;;;;;8.12;53.58;100060.65;147660;1147;105079;-71
2021/04/10 06:39:39;;;;;;;30.57;19.30;;;;;;;8.25;53.54;100061.16;147791;1147;104427;-71
2021/04/10 06:42:42;;;;;;;27.10;16.70;;;;;;;8.39;53.40;100064.35;147611;1147;104560;-71
2021/04/10 06:45:45;;;;;;;39.27;27.90;;;;;;;8.54;53.77;100062.11;147343;1147;104623;-71
2021/04/10 06:48:56;;;;;;;32.95;21.35;;;;;;;8.66;53.45;100063.63;147488;1147;104465;-72
2021/04/10 06:52:00;;;;;;;28.10;16.70;;;;;;;8.80;53.41;100052.50;147724;1146;104473;-73
2021/04/10 06:55:08;;;;;;;29.05;19.90;;;;;;;8.96;53.74;100053.69;147755;1147;104526;-71
2021/04/10 06:58:17;;;;;;;51.63;19.37;;;;;;;9.13;53.09;100042.25;147704;1147;104531;-72
2021/04/10 07:01:21;;;;;;;426.67;210.57;;;;;;;9.28;53.14;100055.91;147693;1147;104547;-73
2021/04/10 07:04:25;;;;;;;107.60;49.77;;;;;;;9.33;53.19;100053.60;147272;1147;104494;-73
2021/04/10 07:07:29;;;;;;;280.43;132.10;;;;;;;9.41;53.14;100050.19;147449;1147;104473;-76
2021/04/10 07:10:32;;;;;;;338.55;195.62;;;;;;;9.43;53.21;100043.75;147372;1147;104882;-71
2021/04/10 07:13:35;;;;;;;178.12;111.97;;;;;;;9.46;53.03;100052.42;147879;1147;104631;-73
2021/04/10 07:16:39;;;;;;;123.58;81.10;;;;;;;9.54;53.20;100049.83;147411;1148;104479;-72
2021/04/10 07:19:43;;;;;;;232.75;156.05;;;;;;;9.60;52.72;100049.22;147504;1147;104535;-74
2021/04/10 07:22:58;;;;;;;65.73;41.83;;;;;;;9.65;53.14;100062.93;147420;1147;104466;-74
2021/04/10 07:26:01;;;;;;;58.20;36.53;;;;;;;9.72;53.33;100050.69;147360;1148;104505;-74
2021/04/10 07:29:04;;;;;;;69.27;41.48;;;;;;;9.83;53.04;100062.92;147599;1146;104531;-74
2021/04/10 07:32:32;;;;;;;67.30;43.25;;;;;;;9.92;52.71;100059.34;147362;1145;104445;-72
2021/04/10 07:35:42;;;;;;;41.85;26.82;;;;;;;10.00;52.54;100058.57;147285;1147;104554;-74
2021/04/10 07:38:56;;;;;;;91.32;52.45;;;;;;;10.08;52.68;100058.63;147669;1147;104461;-72
2021/04/10 07:42:01;;;;;;;61.63;36.95;;;;;;;10.18;52.35;100067.39;147665;1147;104549;-72
2021/04/10 07:45:05;;;;;;;89.75;54.20;;;;;;;10.29;52.34;100073.45;147583;1147;104444;-73
2021/04/10 07:48:14;;;;;;;59.25;35.20;;;;;;;10.40;52.45;100065.23;147671;1147;104457;-72
2021/04/10 07:51:17;;;;;;;60.20;37.33;;;;;;;10.53;52.54;100067.50;147667;1147;104492;-76
2021/04/10 07:54:23;;;;;;;67.72;40.95;;;;;;;10.67;52.20;100074.08;148051;1145;104459;-76
2021/04/10 07:57:27;;;;;;;102.27;57.60;;;;;;;10.79;52.03;100073.63;148017;1147;104423;-72
2021/04/10 08:00:43;;;;;;;51.30;27.45;;;;;;;10.97;51.54;100070.03;147600;1146;104605;-76
2021/04/10 08:03:49;;;;;;;67.37;41.70;;;;;;;11.14;51.67;100071.80;148098;1147;104505;-73
2021/04/10 08:06:58;;;;;;;40.50;25.23;;;;;;;11.29;51.32;100068.50;147942;1147;104458;-72
2021/04/10 08:10:04;;;;;;;120.35;84.42;;;;;;;11.43;51.57;100075.05;147823;1147;104551;-73
2021/04/10 08:13:10;;;;;;;48.78;31.48;;;;;;;11.55;51.27;100063.06;147911;1147;104707;-73
2021/04/10 08:16:14;;;;;;;107.87;74.50;;;;;;;11.68;51.09;100063.42;147828;1147;104623;-71
2021/04/10 08:19:28;;;;;;;37.63;26.47;;;;;;;11.81;51.03;100062.09;148112;1147;104483;-75
2021/04/10 08:22:31;;;;;;;109.10;70.72;;;;;;;11.96;51.07;100061.28;147862;1147;104538;-73
2021/04/10 08:25:35;;;;;;;33.98;22.50;;;;;;;12.09;50.66;100052.77;147985;1147;104556;-73
2021/04/10 08:28:38;;;;;;;38.45;27.73;;;;;;;12.26;50.74;100044.72;147872;1147;104590;-73
2021/04/10 08:31:41;;;;;;;23.83;16.95;;;;;;;12.44;50.69;100042.69;148047;1147;104910;-72
2021/04/10 08:34:45;;;;;;;29.10;23.53;;;;;;;12.65;49.69;100052.02;147844;1147;104440;-74
2021/04/10 08:37:53;;;;;;;20.30;14.47;;;;;;;12.85;50.08;100061.31;147665;1147;104454;-73
2021/04/10 08:40:58;;;;;;;18.62;12.47;;;;;;;13.10;50.52;100058.54;147969;1146;104492;-72
2021/04/10 08:44:04;;;;;;;20.08;11.53;;;;;;;13.34;50.07;100061.13;147911;1147;104862;-75
2021/04/10 08:47:08;;;;;;;17.57;11.93;;;;;;;13.57;49.19;100062.16;147757;1148;104582;-74
2021/04/10 08:50:13;;;;;;;17.37;11.38;;;;;;;13.79;48.98;100065.89;147438;1145;104494;-75
2021/04/10 08:53:21;;;;;;;16.75;11.68;;;;;;;13.96;48.10;100063.92;147548;1147;104480;-74
2021/04/10 08:56:28;;;;;;;16.27;11.03;;;;;;;14.12;48.49;100053.86;147907;1147;104519;-75
2021/04/10 08:59:39;;;;;;;19.42;11.65;;;;;;;14.32;48.83;100067.63;147887;1147;104569;-73
2021/04/10 09:02:53;;;;;;;16.82;11.60;;;;;;;14.52;47.77;100057.19;148024;1147;104601;-74
2021/04/10 09:05:57;;;;;;;256.05;110.63;;;;;;;14.66;48.28;100054.72;147703;1146;104501;-74
2021/04/10 09:09:28;;;;;;;391.57;211.83;;;;;;;14.72;47.85;100064.72;147619;1147;104474;-74
2021/04/10 09:12:31;;;;;;;298.60;235.53;;;;;;;14.71;47.68;100068.44;147685;1147;104538;-74
2021/04/10 09:15:35;;;;;;;67.85;47.30;;;;;;;14.71;48.10;100071.95;147571;1147;104467;-75
2021/04/10 09:18:39;;;;;;;33.18;22.40;;;;;;;14.71;47.35;100063.08;147772;1147;104457;-77
2021/04/10 09:21:47;;;;;;;75.05;54.88;;;;;;;14.69;46.74;100065.11;147746;1147;104534;-74
2021/04/10 09:24:56;;;;;;;35.40;26.20;;;;;;;14.74;47.17;100060.00;147908;1147;104543;-74
2021/04/10 09:28:06;;;;;;;81.28;61.68;;;;;;;14.85;47.11;100053.34;147987;1147;104847;-73
2021/04/10 09:31:36;;;;;;;57.27;41.42;;;;;;;14.95;47.04;100058.43;148016;1146;104867;-75
2021/04/10 09:34:59;;;;;;;19.20;14.33;;;;;;;14.94;46.35;100065.66;147909;1147;104657;-78
2021/04/10 09:38:03;;;;;;;22.70;16.25;;;;;;;14.83;46.21;100066.95;147963;1147;104470;-73
2021/04/10 09:41:06;;;;;;;15.60;11.20;;;;;;;14.77;46.03;100067.70;147740;1147;104592;-71
2021/04/10 09:44:09;;;;;;;17.70;12.15;;;;;;;14.69;45.90;100068.63;147789;1147;105059;-72
2021/04/10 09:47:12;;;;;;;19.90;11.48;;;;;;;14.68;45.96;100063.42;148106;1147;104467;-75
2021/04/10 09:50:15;;;;;;;17.17;11.05;;;;;;;14.75;45.66;100058.99;147795;1147;104604;-74
2021/04/10 09:53:20;;;;;;;14.25;10.05;;;;;;;14.87;45.62;100068.24;147926;1146;104483;-74
2021/04/10 09:56:23;;;;;;;16.05;11.85;;;;;;;14.90;44.07;100064.37;147759;1147;104444;-72
2021/04/10 09:59:27;;;;;;;23.47;17.37;;;;;;;14.99;45.48;100075.84;148145;1147;104522;-72
2021/04/10 10:02:30;;;;;;;16.43;11.50;;;;;;;15.08;44.04;100070.17;148308;1146;104543;-72
2021/04/10 10:05:35;;;;;;;18.12;11.40;;;;;;;15.17;43.95;100064.72;148033;1147;104894;-71
2021/04/10 10:08:38;;;;;;;15.38;11.05;;;;;;;15.31;44.21;100059.30;147823;1147;104892;-72
2021/04/10 10:11:51;;;;;;;21.25;16.15;;;;;;;15.56;43.96;100061.64;147954;1146;104546;-72
2021/04/10 10:14:54;;;;;;;53.52;34.98;;;;;;;15.79;44.06;100055.30;148060;1147;104455;-72
2021/04/10 10:17:58;;;;;;;20.65;13.95;;;;;;;15.95;43.94;100060.41;147653;1147;104535;-72
2021/04/10 10:21:04;;;;;;;17.65;12.85;;;;;;;16.15;43.32;100067.81;147765;1147;104606;-73
2021/04/10 10:24:08;;;;;;;22.23;15.53;;;;;;;16.26;43.34;100056.52;147997;1147;104478;-72
2021/04/10 10:27:11;;;;;;;19.12;11.75;;;;;;;16.37;43.39;100064.07;147684;1146;104519;-72
2021/04/10 10:30:16;;;;;;;15.08;10.98;;;;;;;16.45;43.42;100066.61;147475;1146;104527;-74
2021/04/10 10:33:22;;;;;;;405.67;179.40;;;;;;;16.52;40.42;100055.08;147631;1145;104470;-72
2021/04/10 10:36:33;;;;;;;164.05;69.27;;;;;;;16.51;42.02;100064.17;147766;1147;104551;-72
2021/04/10 10:39:38;;;;;;;447.95;273.50;;;;;;;16.46;40.29;100065.59;147763;1146;104478;-72
2021/04/10 10:42:41;;;;;;;91.42;50.40;;;;;;;16.38;41.87;100057.67;147652;1147;104456;-73
2021/04/10 10:45:48;;;;;;;49.97;32.57;;;;;;;16.36;41.99;100056.18;147732;1147;104452;-72
2021/04/10 10:48:51;;;;;;;272.55;205.22;;;;;;;16.32;42.24;100068.38;147759;1147;104540;-71
2021/04/10 10:51:54;;;;;;;197.47;149.55;;;;;;;16.29;42.03;100061.53;147595;1147;104553;-71
2021/04/10 10:55:01;;;;;;;41.05;31.90;;;;;;;16.24;41.66;100070.20;147747;1147;104572;-72
2021/04/10 10:58:05;;;;;;;23.20;17.82;;;;;;;16.25;41.36;100065.64;147075;1147;104543;-72
2021/04/10 11:01:16;;;;;;;18.05;12.75;;;;;;;16.34;41.82;100061.78;147549;1147;105078;-72
2021/04/10 11:04:20;;;;;;;;;;;;;;;16.48;41.56;100065.41;147611;1146;104491;-72
2021/04/10 11:07:26;;;;;;;15.43;11.18;;;;;;;16.51;41.42;100066.86;147655;1147;105007;-73
2021/04/10 11:10:29;;;;;;;14.53;10.20;;;;;;;16.52;41.13;100069.37;147730;1148;104525;-72
2021/04/10 11:13:33;;;;;;;13.60;10.03;;;;;;;16.55;41.32;100066.29;147748;1147;104495;-71
2021/04/10 11:16:44;;;;;;;17.20;11.53;;;;;;;16.55;41.28;100060.05;147753;1148;104532;-72
2021/04/10 11:19:47;;;;;;;15.98;11.28;;;;;;;16.55;41.06;100057.36;147718;1147;104543;-73
2021/04/10 11:23:06;;;;;;;15.18;10.45;;;;;;;16.54;41.12;100064.61;147635;1147;104617;-71
2021/04/10 11:26:10;;;;;;;15.58;10.80;;;;;;;16.52;41.04;100073.92;147446;1148;104522;-72
2021/04/10 11:29:31;;;;;;;15.68;11.30;;;;;;;16.44;40.46;100073.04;147738;1147;104454;-72
2021/04/10 11:32:39;;;;;;;17.23;12.63;;;;;;;16.34;40.54;100080.63;147543;1146;104515;-73
2021/04/10 11:35:54;;;;;;;16.67;11.77;;;;;;;16.26;40.54;100072.67;147846;1146;104471;-75
2021/04/10 11:39:05;;;;;;;18.10;13.38;;;;;;;16.21;41.41;100070.58;147749;1147;104519;-75
2021/04/10 11:42:08;;;;;;;17.70;12.28;;;;;;;16.18;40.90;100062.06;147723;1147;104521;-75
2021/04/10 11:45:22;;;;;;;18.73;14.43;;;;;;;16.12;40.67;100070.91;147559;1147;104375;-73
2021/04/10 11:48:26;;;;;;;19.07;13.30;;;;;;;16.14;41.03;100071.55;147474;1147;104476;-72
2021/04/10 11:51:29;;;;;;;18.20;13.50;;;;;;;16.23;40.48;100063.14;147436;1146;104470;-74
2021/04/10 11:54:34;;;;;;;20.80;12.87;;;;;;;16.32;41.18;100058.46;147735;1147;104560;-72
2021/04/10 11:57:39;;;;;;;17.52;12.25;;;;;;;16.42;40.10;100060.81;147809;1148;104466;-72
2021/04/10 12:00:42;;;;;;;15.40;11.28;;;;;;;16.51;40.63;100059.61;147808;1147;104473;-72
2021/04/10 12:03:53;;;;;;;18.10;12.45;;;;;;;16.62;40.38;100061.76;147765;1146;104525;-71
2021/04/10 12:07:07;;;;;;;17.80;12.33;;;;;;;16.67;40.16;100053.10;147852;1146;104556;-71
2021/04/10 12:10:11;;;;;;;19.30;13.08;;;;;;;16.66;40.34;100054.11;147785;1147;104634;-73
2021/04/10 12:13:16;;;;;;;19.12;12.53;;;;;;;16.70;40.49;100049.99;147780;1146;104514;-74
2021/04/10 12:16:20;;;;;;;20.40;13.65;;;;;;;16.75;40.51;100044.03;147800;1147;104476;-73
2021/04/10 12:19:24;;;;;;;19.67;13.45;;;;;;;16.77;39.81;100042.78;147711;1147;104532;-72
2021/04/10 12:22:27;;;;;;;16.42;11.65;;;;;;;16.75;40.17;100044.85;147721;1146;104531;-73
2021/04/10 12:25:31;;;;;;;14.57;10.90;;;;;;;16.84;40.44;100043.70;147727;1147;104544;-73
2021/04/10 12:28:34;;;;;;;14.40;10.85;;;;;;;16.99;39.99;100043.54;147779;1147;104579;-74
2021/04/10 12:31:38;;;;;;;19.20;12.37;;;;;;;17.12;40.22;100042.77;147800;1147;104546;-73
2021/04/10 12:34:41;;;;;;;15.95;11.53;;;;;;;17.18;39.78;100033.05;147760;1147;104553;-73
2021/04/10 12:37:44;;;;;;;15.10;11.30;;;;;;;17.22;40.29;100027.05;147739;1147;104450;-74
2021/04/10 12:40:47;;;;;;;17.33;11.93;;;;;;;17.26;39.93;100032.86;147770;1147;104473;-72
2021/04/10 12:43:50;;;;;;;16.45;11.80;;;;;;;17.24;39.47;100032.23;147833;1146;104492;-74
2021/04/10 12:46:53;;;;;;;14.45;11.22;;;;;;;17.23;40.01;100031.41;147525;1146;104545;-72
2021/04/10 12:49:56;;;;;;;19.07;11.95;;;;;;;17.21;39.77;100025.39;147762;1146;104453;-74
2021/04/10 12:53:00;;;;;;;15.87;11.80;;;;;;;17.16;39.65;100019.77;147717;1147;104473;-74
2021/04/10 12:56:03;;;;;;;13.75;10.43;;;;;;;17.17;39.15;100020.63;147705;1146;104614;-73
2021/04/10 12:59:06;;;;;;;15.08;11.45;;;;;;;17.14;39.33;100019.14;147614;1147;104739;-74
2021/04/10 13:02:10;;;;;;;16.35;11.30;;;;;;;17.14;39.75;100021.84;147720;1148;104460;-72
2021/04/10 13:05:15;;;;;;;14.03;11.50;;;;;;;17.15;39.62;100018.12;147791;1146;104492;-73
2021/04/10 13:08:18;;;;;;;15.55;11.20;;;;;;;17.16;38.99;100018.95;147806;1146;104473;-72
2021/04/10 13:11:21;;;;;;;14.60;10.03;;;;;;;17.18;39.21;100016.87;147772;1148;104563;-75
2021/04/10 13:14:25;;;;;;;13.50;10.13;;;;;;;17.21;39.32;100021.88;147411;1147;104631;-72
2021/04/10 13:17:29;;;;;;;15.07;9.97;;;;;;;17.29;39.09;100018.17;147773;1147;104472;-72
2021/04/10 13:20:32;;;;;;;18.23;13.18;;;;;;;17.31;38.93;100016.09;147791;1147;104543;-72
2021/04/10 13:23:35;;;;;;;14.63;10.93;;;;;;;17.25;38.86;100018.56;147605;1146;104458;-71
2021/04/10 13:26:39;;;;;;;18.52;11.73;;;;;;;17.21;38.84;100020.00;147738;1147;104517;-72
2021/04/10 13:29:42;;;;;;;18.10;10.95;;;;;;;17.22;38.44;100013.56;147762;1147;104550;-72
2021/04/10 13:32:46;;;;;;;14.87;10.43;;;;;;;17.19;38.68;100013.16;147772;1148;104535;-71
2021/04/10 13:35:49;;;;;;;17.75;12.63;;;;;;;17.15;38.76;100010.03;147731;1146;104457;-71
2021/04/10 13:38:52;;;;;;;14.07;10.90;;;;;;;17.11;39.34;100016.87;147727;1147;104713;-71
2021/04/10 13:41:55;;;;;;;32.23;22.35;;;;;;;17.11;38.55;100010.62;147736;1147;104447;-72
2021/04/10 13:44:58;;;;;;;16.57;12.20;;;;;;;17.07;38.68;100010.19;147761;1147;104459;-70
2021/04/10 13:48:02;;;;;;;15.10;10.80;;;;;;;17.08;38.99;100007.30;147703;1147;104553;-71
2021/04/10 13:51:06;;;;;;;19.52;10.53;;;;;;;17.04;38.56;100002.52;147636;1147;105056;-72